Time;durP1;ratioP1;P1;durP2;ratioP2;P2;SDS_P1;SDS_P2;PMS_P1;PMS_P2;Temp;Humidity;BMP_temperature;BMP_pressure;BME280_temperature;BME280_humidity;BME280_pressure;Samples;Min_cycle;Max_cycle;Signal;HPM_P1;HPM_P2
2022/12/04 00:00:10;;;;;;;1.95;1.02;;;26.60;80.50;;;;;;5069285;28;20799;-81
2022/12/04 00:02:37;;;;;;;2.58;1.10;;;27.10;79.30;;;;;;5069340;28;20416;-81
2022/12/04 00:05:05;;;;;;;2.72;1.02;;;27.30;78.60;;;;;;5069319;28;20384;-79
2022/12/04 00:07:32;;;;;;;4.97;1.00;;;27.20;76.80;;;;;;5069433;28;20983;-82
2022/12/04 00:09:59;;;;;;;2.53;1.10;;;26.80;74.90;;;;;;5069518;28;20869;-81
2022/12/04 00:12:26;;;;;;;3.83;1.10;;;26.20;76.70;;;;;;5069513;28;20869;-81
2022/12/04 00:14:53;;;;;;;21.27;2.08;;;26.00;77.50;;;;;;5069355;28;20416;-79
2022/12/04 00:17:21;;;;;;;1.83;0.93;;;26.10;77.80;;;;;;5069243;28;20370;-79
2022/12/04 00:19:48;;;;;;;11.30;1.60;;;26.30;77.70;;;;;;5069487;28;20772;-81
2022/12/04 00:22:15;;;;;;;5.20;1.08;;;26.60;76.60;;;;;;5069075;28;20508;-82
2022/12/04 00:24:42;;;;;;;3.03;0.95;;;26.70;74.70;;;;;;5051068;28;20742;-80
2022/12/04 00:27:09;;;;;;;6.88;1.35;;;26.60;74.10;;;;;;5068890;28;20931;-81
2022/12/04 00:29:36;;;;;;;4.78;1.00;;;26.40;73.40;;;;;;5068907;28;20374;-78
2022/12/04 00:32:03;;;;;;;2.40;1.10;;;26.00;74.70;;;;;;5068718;28;20382;-79
2022/12/04 00:34:30;;;;;;;2.75;1.08;;;26.00;76.60;;;;;;5070713;28;20382;-80
2022/12/04 00:36:57;;;;;;;7.55;1.35;;;26.20;73.70;;;;;;5068880;28;20465;-82
2022/12/04 00:39:24;;;;;;;3.42;1.00;;;26.30;73.30;;;;;;5068808;28;20444;-81
2022/12/04 00:41:51;;;;;;;2.72;0.93;;;26.20;73.40;;;;;;5068802;28;20382;-85
2022/12/04 00:44:18;;;;;;;4.07;0.98;;;25.80;73.40;;;;;;5068978;28;20370;-83
2022/12/04 00:46:45;;;;;;;3.13;1.02;;;25.40;74.60;;;;;;5068557;28;20424;-82
2022/12/04 00:49:12;;;;;;;5.97;1.23;;;25.10;76.40;;;;;;5068678;28;20374;-79
2022/12/04 00:51:39;;;;;;;2.85;1.00;;;24.90;77.50;;;;;;5068637;28;20378;-81
2022/12/04 00:54:06;;;;;;;2.87;1.10;;;25.00;77.90;;;;;;5068491;28;20374;-83
2022/12/04 00:56:33;;;;;;;4.93;1.10;;;25.30;75.70;;;;;;5068513;28;20390;-81
2022/12/04 00:59:00;;;;;;;3.78;0.90;;;25.80;76.50;;;;;;5050807;28;20749;-84
2022/12/04 01:01:29;;;;;;;3.40;0.88;;;26.40;73.40;;;;;;5068368;28;20893;-84
2022/12/04 01:03:56;;;;;;;1.60;0.90;;;26.90;73.00;;;;;;5068704;28;20382;-83
2022/12/04 01:06:29;;;;;;;3.08;1.00;;;27.30;71.80;;;;;;5068573;28;20785;-79
2022/12/04 01:08:58;;;;;;;2.42;1.00;;;27.40;70.10;;;;;;5068356;28;20433;-81
2022/12/04 01:11:27;;;;;;;2.40;0.90;;;27.40;67.90;;;;;;5068623;28;20370;-76
2022/12/04 01:13:55;;;;;;;2.00;0.90;;;27.80;68.00;;;;;;5068272;28;20862;-79
2022/12/04 01:16:31;;;;;;;1.48;0.90;;;28.10;67.60;;;;;;5068646;28;20378;-81
2022/12/04 01:18:58;;;;;;;57.75;3.85;;;28.60;63.90;;;;;;5068184;28;20445;-81
2022/12/04 01:21:25;;;;;;;12.63;1.95;;;28.90;65.20;;;;;;5068217;28;20465;-82
2022/12/04 01:23:52;;;;;;;2.45;0.90;;;28.90;64.30;;;;;;5068185;28;20453;-81
2022/12/04 01:26:19;;;;;;;2.50;1.10;;;28.70;63.20;;;;;;5072078;28;20496;-78
2022/12/04 01:28:46;;;;;;;9.82;1.60;;;28.00;64.30;;;;;;5077949;28;20384;-80
2022/12/04 01:31:18;;;;;;;3.80;1.10;;;27.60;66.00;;;;;;5077783;28;20427;-80
2022/12/04 01:33:45;;;;;;;3.03;1.27;;;27.10;66.80;;;;;;5070224;28;20371;-79
2022/12/04 01:36:15;;;;;;;2.25;1.00;;;26.90;67.80;;;;;;5068024;28;20377;-77
2022/12/04 01:38:43;;;;;;;2.22;1.10;;;26.80;67.60;;;;;;5068370;28;20374;-77
2022/12/04 01:41:11;;;;;;;27.43;2.50;;;26.60;67.60;;;;;;5067924;28;20370;-80
2022/12/04 01:43:39;;;;;;;14.20;1.70;;;26.60;68.10;;;;;;5068120;28;20377;-82
2022/12/04 01:46:07;;;;;;;3.45;0.90;;;27.20;68.40;;;;;;5068247;28;20458;-80
2022/12/04 01:48:51;;;;;;;2.93;1.00;;;28.40;66.10;;;;;;5068091;28;20386;-82
2022/12/04 01:51:29;;;;;;;4.00;1.10;;;29.30;63.60;;;;;;5068625;28;20366;-78
2022/12/04 01:54:00;;;;;;;2.20;1.10;;;29.10;61.50;;;;;;5067959;28;20905;-79
2022/12/04 01:56:40;;;;;;;21.23;2.08;;;28.60;62.40;;;;;;5067794;28;20382;-79
2022/12/04 01:59:09;;;;;;;5.55;1.08;;;28.80;61.80;;;;;;5067101;28;20392;-77
2022/12/04 02:01:43;;;;;;;2.45;1.15;;;29.30;60.70;;;;;;5066852;28;20374;-78
2022/12/04 02:04:10;;;;;;;2.45;1.10;;;29.60;58.90;;;;;;5048969;28;20378;-78
2022/12/04 02:06:37;;;;;;;2.22;1.00;;;29.70;60.10;;;;;;5067592;28;20386;-78
2022/12/04 02:09:04;;;;;;;2.70;1.20;;;30.10;59.30;;;;;;5052163;28;20425;-80
2022/12/04 02:11:50;;;;;;;1.90;1.02;;;30.30;59.00;;;;;;5070039;28;20399;-77
2022/12/04 02:15:09;;;;;;;2.33;1.20;;;30.60;56.00;;;;;;5070678;28;20364;-77
2022/12/04 02:18:17;;;;;;;2.10;1.20;;;30.70;56.80;;;;;;5008446;28;20383;-76
2022/12/04 02:21:01;;;;;;;4.60;1.50;;;30.70;55.60;;;;;;4950264;28;20384;-80
2022/12/04 02:23:36;;;;;;;10.30;1.40;;;30.90;55.80;;;;;;4949977;28;20938;-79
2022/12/04 02:26:29;;;;;;;1.92;1.20;;;30.80;55.90;;;;;;4950190;28;20385;-77
2022/12/04 02:29:20;;;;;;;27.00;5.38;;;30.60;55.70;;;;;;4950087;28;20920;-78
2022/12/04 02:31:57;;;;;;;4.70;1.80;;;30.00;56.30;;;;;;4950006;28;20489;-78
2022/12/04 02:34:32;;;;;;;2.65;1.25;;;29.60;56.30;;;;;;4950215;29;20485;-79
2022/12/04 02:37:24;;;;;;;3.95;1.58;;;29.40;56.80;;;;;;4949727;29;20384;-78
2022/12/04 02:40:04;;;;;;;3.40;1.60;;;30.00;57.10;;;;;;4949849;29;20416;-77
2022/12/04 02:42:51;;;;;;;93.32;15.18;;;31.10;55.80;;;;;;4949968;28;20460;-78
2022/12/04 02:45:29;;;;;;;12.27;2.70;;;31.90;54.20;;;;;;4950623;29;20384;-78
2022/12/04 02:47:58;;;;;;;2.13;1.23;;;33.10;53.00;;;;;;4950117;28;20444;-77
2022/12/04 02:50:27;;;;;;;3.40;1.30;;;32.90;51.40;;;;;;4949632;29;20391;-77
2022/12/04 02:53:11;;;;;;;1.83;1.13;;;33.10;51.90;;;;;;4951400;28;20824;-78
2022/12/04 02:55:51;;;;;;;1.77;1.33;;;33.90;50.40;;;;;;4988210;28;20392;-78
2022/12/04 02:58:57;;;;;;;1.75;1.40;;;34.60;48.90;;;;;;4943206;28;3441251;-78
2022/12/04 03:01:33;;;;;;;13.13;11.77;;;35.30;48.50;;;;;;5070559;28;20374;-79
2022/12/04 03:04:14;;;;;;;8.63;6.40;;;35.70;47.20;;;;;;5070303;28;20409;-78
2022/12/04 03:06:45;;;;;;;2.83;2.10;;;35.60;46.40;;;;;;5070361;28;20394;-78
2022/12/04 03:09:18;;;;;;;1.60;1.23;;;35.30;48.60;;;;;;5052388;28;20386;-78
2022/12/04 03:11:53;;;;;;;1.88;1.10;;;35.60;45.70;;;;;;5070436;28;20406;-78
2022/12/04 03:14:34;;;;;;;1.83;1.00;;;35.50;45.90;;;;;;5070125;28;20438;-77
2022/12/04 03:17:15;;;;;;;2.72;1.20;;;35.40;47.50;;;;;;5070117;28;20449;-77
2022/12/04 03:19:52;;;;;;;2.40;1.40;;;35.40;46.20;;;;;;5069454;28;20405;-78
2022/12/04 03:22:22;;;;;;;2.15;1.10;;;34.90;46.70;;;;;;5070079;28;20386;-80
2022/12/04 03:24:54;;;;;;;2.45;1.40;;;34.30;47.80;;;;;;5069911;28;20374;-77
2022/12/04 03:27:30;;;;;;;1.80;1.15;;;33.90;46.80;;;;;;5069855;28;20413;-78
2022/12/04 03:30:11;;;;;;;2.70;1.10;;;33.20;48.30;;;;;;5070280;28;20374;-77
2022/12/04 03:32:46;;;;;;;1.60;1.00;;;33.20;48.10;;;;;;5070048;28;20368;-77
2022/12/04 03:35:23;;;;;;;2.53;1.02;;;33.50;47.60;;;;;;5069751;28;20378;-79
2022/12/04 03:38:19;;;;;;;1.38;1.10;;;34.30;46.60;;;;;;5070351;28;20407;-80
2022/12/04 03:40:54;;;;;;;2.00;1.20;;;34.90;46.50;;;;;;5053865;28;20421;-81
2022/12/04 03:43:53;;;;;;;1.37;1.00;;;35.70;45.60;;;;;;5070511;28;20381;-82
2022/12/04 03:46:26;;;;;;;1.30;1.00;;;35.60;44.90;;;;;;5069743;28;20417;-80
2022/12/04 03:49:16;;;;;;;1.45;1.00;;;35.50;43.60;;;;;;5069599;28;20408;-82
2022/12/04 03:51:58;;;;;;;2.03;1.10;;;34.90;44.50;;;;;;5069665;28;20827;-85
2022/12/04 03:54:33;;;;;;;3.25;1.40;;;34.90;45.50;;;;;;5069564;28;20449;-81
2022/12/04 03:57:07;;;;;;;2.88;1.10;;;35.20;46.30;;;;;;5069021;28;20467;-82
2022/12/04 03:59:39;;;;;;;1.60;0.90;;;36.00;45.00;;;;;;5069466;28;20382;-82
2022/12/04 04:02:12;;;;;;;2.08;1.00;;;36.70;44.00;;;;;;5069213;28;20834;-83
2022/12/04 04:04:43;;;;;;;1.87;0.90;;;36.90;44.20;;;;;;5069149;28;20451;-83
2022/12/04 04:07:45;;;;;;;2.50;1.20;;;37.00;43.00;;;;;;5051284;28;20770;-81
2022/12/04 04:10:16;;;;;;;1.48;1.00;;;36.80;43.40;;;;;;5007633;28;20380;-82
2022/12/04 04:24:13;;;;;;;3.28;0.90;;;36.50;44.10;;;;;;5008128;28;20389;-81
2022/12/04 04:24:21;;;;;;;1.10;0.80;;;36.80;44.80;;;;;;4949598;29;20372;-77
2022/12/04 04:26:49;;;;;;;1.30;1.00;;;36.40;43.10;;;;;;4949274;29;20396;-85
2022/12/04 04:29:16;;;;;;;2.15;1.00;;;35.40;45.40;;;;;;4949981;28;20448;-83
2022/12/04 04:31:47;;;;;;;1.63;1.00;;;35.40;43.60;;;;;;4949392;29;20900;-81
2022/12/04 04:34:16;;;;;;;1.90;1.10;;;34.30;45.10;;;;;;4949046;29;20392;-76
2022/12/04 04:37:04;;;;;;;2.33;0.90;;;34.40;44.70;;;;;;4949307;29;20833;-78
2022/12/04 04:39:38;;;;;;;1.42;0.80;;;35.20;44.50;;;;;;4949195;29;20416;-79
2022/12/04 04:42:20;;;;;;;1.40;0.90;;;35.70;44.30;;;;;;4948807;29;20436;-78
2022/12/04 04:44:56;;;;;;;1.77;0.93;;;36.20;43.10;;;;;;4949303;29;20392;-83
2022/12/04 04:48:01;;;;;;;0.95;0.80;;;35.90;42.00;;;;;;4964852;28;20438;-78
2022/12/04 04:50:29;;;;;;;1.20;0.80;;;35.30;43.60;;;;;;4966874;28;20738;-79
2022/12/04 04:53:02;;;;;;;1.70;0.82;;;35.30;42.90;;;;;;4967646;28;20397;-77
2022/12/04 04:55:33;;;;;;;1.67;0.82;;;34.90;44.00;;;;;;4967843;28;20394;-81
2022/12/04 04:58:17;;;;;;;1.55;0.90;;;35.10;44.10;;;;;;5004162;28;20416;-80
2022/12/04 05:01:05;;;;;;;1.38;0.80;;;35.30;43.30;;;;;;5068668;28;20385;-79
2022/12/04 05:03:32;;;;;;;2.00;0.90;;;35.00;43.40;;;;;;5068226;28;20409;-78
2022/12/04 05:05:59;;;;;;;2.50;1.00;;;34.50;44.10;;;;;;5068738;28;20889;-81
2022/12/04 05:08:27;;;;;;;1.52;1.00;;;34.50;44.50;;;;;;5051596;28;20390;-82
2022/12/04 05:10:54;;;;;;;1.98;1.05;;;35.10;44.80;;;;;;5068013;28;20367;-77
2022/12/04 05:13:21;;;;;;;1.67;1.00;;;35.10;44.00;;;;;;5068209;28;20374;-77
2022/12/04 05:16:03;;;;;;;2.80;1.08;;;35.00;44.80;;;;;;5068194;28;20382;-76
2022/12/04 05:18:30;;;;;;;2.20;1.00;;;35.30;45.30;;;;;;5068522;28;20374;-78
2022/12/04 05:20:57;;;;;;;2.95;1.10;;;35.80;44.00;;;;;;5068103;28;20367;-83
2022/12/04 05:23:25;;;;;;;4.10;1.15;;;35.70;43.80;;;;;;5068481;28;20417;-82
2022/12/04 05:26:02;;;;;;;3.45;1.00;;;35.90;45.00;;;;;;5068217;28;20371;-83
2022/12/04 05:28:29;;;;;;;2.08;1.02;;;35.20;46.00;;;;;;5068613;28;20378;-78
2022/12/04 05:31:00;;;;;;;3.15;1.00;;;33.90;47.50;;;;;;5068308;28;20371;-80
2022/12/04 05:33:28;;;;;;;1.70;1.00;;;32.30;50.60;;;;;;5068489;28;20410;-78
2022/12/04 05:35:59;;;;;;;2.67;1.00;;;31.20;52.70;;;;;;5067849;28;20426;-76
2022/12/04 05:38:26;;;;;;;3.30;1.13;;;30.40;54.20;;;;;;5068085;28;20399;-79
2022/12/04 05:40:53;;;;;;;2.03;1.00;;;29.80;55.60;;;;;;5068244;28;20514;-77
2022/12/04 05:43:23;;;;;;;2.80;0.88;;;30.50;56.00;;;;;;5072046;28;20378;-85
2022/12/04 05:45:50;;;;;;;2.80;1.00;;;31.40;53.60;;;;;;5071875;28;20366;-82
2022/12/04 05:48:17;;;;;;;2.92;1.00;;;32.00;52.80;;;;;;5071847;28;20429;-81
2022/12/04 05:50:44;;;;;;;2.63;0.90;;;32.70;52.60;;;;;;5072021;28;20447;-86
2022/12/04 05:53:11;;;;;;;2.58;0.90;;;33.10;50.90;;;;;;5071853;28;20374;-89
2022/12/04 05:55:38;;;;;;;3.30;1.00;;;32.90;52.30;;;;;;5073133;28;20413;-81
2022/12/04 05:58:05;;;;;;;1.70;0.90;;;33.30;51.90;;;;;;5073798;28;20398;-77
2022/12/04 06:00:32;;;;;;;3.10;0.90;;;33.40;50.80;;;;;;5074204;28;20457;-81
2022/12/04 06:02:59;;;;;;;2.50;1.00;;;33.70;50.60;;;;;;5073487;28;20384;-84
2022/12/04 06:05:26;;;;;;;3.60;1.02;;;33.80;50.90;;;;;;5071573;28;20377;-86
2022/12/04 06:07:53;;;;;;;4.72;1.20;;;33.90;50.00;;;;;;5054037;28;20402;-90
2022/12/04 06:10:20;;;;;;;1.85;0.80;;;33.60;50.80;;;;;;5071710;28;20453;-81
2022/12/04 06:12:47;;;;;;;1.98;0.90;;;33.50;51.00;;;;;;5071499;28;20374;-85
2022/12/04 06:15:14;;;;;;;2.10;1.00;;;33.50;51.00;;;;;;5072120;28;20404;-78
2022/12/04 06:17:41;;;;;;;2.38;0.80;;;33.40;50.80;;;;;;5053732;28;20738;-84
2022/12/04 06:20:08;;;;;;;2.33;0.90;;;33.10;51.10;;;;;;5071584;28;20393;-84
2022/12/04 06:22:35;;;;;;;2.95;0.90;;;32.80;51.90;;;;;;5071530;28;20874;-84
2022/12/04 06:25:05;;;;;;;1.70;0.70;;;32.90;51.10;;;;;;5072075;28;20428;-77
2022/12/04 06:27:34;;;;;;;1.55;0.70;;;32.90;51.70;;;;;;5054977;28;20446;-79
2022/12/04 06:30:01;;;;;;;2.70;0.90;;;33.00;51.40;;;;;;5048412;28;20969;-84
2022/12/04 06:32:28;;;;;;;2.45;1.08;;;32.60;52.10;;;;;;5071618;28;20418;-87
2022/12/04 06:34:55;;;;;;;3.13;0.80;;;32.70;51.80;;;;;;5054196;28;20384;-78
2022/12/04 06:37:24;;;;;;;2.38;0.93;;;32.40;52.10;;;;;;5071421;28;20409;-82
2022/12/04 06:39:51;;;;;;;3.22;0.95;;;32.20;52.10;;;;;;5071491;28;20398;-79
2022/12/04 06:42:18;;;;;;;3.63;0.90;;;32.40;52.90;;;;;;5071378;28;20815;-80
2022/12/04 06:44:45;;;;;;;2.72;0.82;;;32.90;51.80;;;;;;5070884;28;20445;-81
2022/12/04 06:47:12;;;;;;;2.08;0.75;;;32.80;51.30;;;;;;5070935;28;20800;-83
2022/12/04 06:49:39;;;;;;;1.73;0.73;;;32.30;52.40;;;;;;5070884;28;20477;-80
2022/12/04 06:52:06;;;;;;;2.55;0.70;;;32.40;52.60;;;;;;5070698;28;20383;-86
2022/12/04 06:54:33;;;;;;;3.10;1.00;;;32.30;51.70;;;;;;5070768;28;20370;-86
2022/12/04 06:57:00;;;;;;;1.87;0.80;;;32.10;52.80;;;;;;5070546;28;20500;-78
2022/12/04 06:59:27;;;;;;;1.90;0.73;;;32.10;52.20;;;;;;5071176;28;20765;-85
2022/12/04 07:01:54;;;;;;;1.52;0.77;;;32.30;52.00;;;;;;5070827;28;20370;-88
2022/12/04 07:04:22;;;;;;;3.30;0.87;;;31.80;52.00;;;;;;5070527;28;20447;-82
2022/12/04 07:06:49;;;;;;;1.98;0.85;;;31.60;52.90;;;;;;5052855;28;20946;-78
2022/12/04 07:09:17;;;;;;;1.57;0.80;;;31.80;52.80;;;;;;5070617;28;20923;-80
2022/12/04 07:11:45;;;;;;;1.37;0.60;;;32.00;51.70;;;;;;5070544;28;20381;-79
2022/12/04 07:14:12;;;;;;;1.88;0.80;;;31.80;52.40;;;;;;5070167;28;20817;-82
2022/12/04 07:16:40;;;;;;;1.63;0.70;;;31.50;52.70;;;;;;5070345;28;20402;-79
2022/12/04 07:19:12;;;;;;;2.35;1.02;;;31.20;53.20;;;;;;5070595;28;20374;-81
2022/12/04 07:21:39;;;;;;;2.15;0.90;;;31.20;52.90;;;;;;5070120;28;20374;-86
2022/12/04 07:24:06;;;;;;;2.10;0.70;;;31.10;53.10;;;;;;5070353;28;20377;-88
2022/12/04 07:26:33;;;;;;;1.90;0.73;;;31.10;53.40;;;;;;5070254;28;20397;-76
2022/12/04 07:29:01;;;;;;;2.95;0.88;;;31.00;53.50;;;;;;5070304;28;20750;-84
2022/12/04 07:31:29;;;;;;;2.13;0.80;;;30.80;53.80;;;;;;5070289;28;20508;-77
2022/12/04 07:33:56;;;;;;;1.85;0.88;;;30.40;54.50;;;;;;5070019;28;20845;-79
2022/12/04 07:36:25;;;;;;;4.68;3.50;;;30.20;55.20;;;;;;5070075;28;20362;-77
2022/12/04 07:38:54;;;;;;;3.55;2.08;;;30.30;54.90;;;;;;5070421;28;20463;-83
2022/12/04 07:41:21;;;;;;;3.90;2.87;;;30.20;55.20;;;;;;5069958;28;20413;-84
2022/12/04 07:43:50;;;;;;;3.95;2.70;;;30.10;55.10;;;;;;5069594;28;20880;-83
2022/12/04 07:46:20;;;;;;;3.88;2.05;;;30.00;55.70;;;;;;5069684;28;20375;-85
2022/12/04 07:48:47;;;;;;;3.60;0.98;;;29.80;55.80;;;;;;5069581;28;20389;-84
2022/12/04 07:51:23;;;;;;;3.97;1.15;;;29.30;56.40;;;;;;5069597;28;20460;-82
2022/12/04 07:53:52;;;;;;;6.55;5.78;;;29.00;57.70;;;;;;5069567;28;20382;-82
2022/12/04 07:56:20;;;;;;;4.20;2.30;;;28.90;57.50;;;;;;5069413;28;20363;-83
2022/12/04 07:58:47;;;;;;;4.57;2.70;;;28.80;57.90;;;;;;5069381;28;20406;-79
2022/12/04 08:01:15;;;;;;;4.25;2.70;;;28.60;57.80;;;;;;5069395;28;20373;-78
2022/12/04 08:03:44;;;;;;;5.43;3.60;;;28.40;58.30;;;;;;5068885;28;20831;-79
2022/12/04 08:06:11;;;;;;;2.53;1.70;;;28.10;59.50;;;;;;5069079;28;20370;-79
2022/12/04 08:08:38;;;;;;;4.30;3.00;;;27.40;60.90;;;;;;5069512;28;20477;-85
2022/12/04 08:11:12;;;;;;;5.10;2.10;;;26.90;62.40;;;;;;5069386;28;20492;-82
2022/12/04 08:13:39;;;;;;;3.92;1.55;;;26.50;62.50;;;;;;5069317;28;20390;-79
2022/12/04 08:16:08;;;;;;;4.30;1.90;;;26.20;63.70;;;;;;5069438;28;20380;-78
2022/12/04 08:18:35;;;;;;;5.20;2.05;;;26.00;64.00;;;;;;5069244;28;20375;-80
2022/12/04 08:21:07;;;;;;;6.65;1.88;;;25.90;64.80;;;;;;5068955;28;20383;-80
2022/12/04 08:23:34;;;;;;;4.35;1.67;;;25.90;64.50;;;;;;5069394;28;20378;-81
2022/12/04 08:26:02;;;;;;;3.67;1.50;;;25.70;64.60;;;;;;5069151;28;20374;-85
2022/12/04 08:28:30;;;;;;;3.75;1.70;;;25.50;65.30;;;;;;5068706;28;20409;-79
2022/12/04 08:31:03;;;;;;;4.82;2.13;;;25.40;66.00;;;;;;5068765;28;20362;-80
2022/12/04 08:33:32;;;;;;;4.72;2.25;;;25.40;65.90;;;;;;5069163;28;20428;-82
2022/12/04 08:35:59;;;;;;;4.33;2.07;;;25.30;66.00;;;;;;5050907;28;20413;-84
2022/12/04 08:38:27;;;;;;;5.75;2.75;;;25.00;66.60;;;;;;5068885;28;20382;-77
2022/12/04 08:40:54;;;;;;;8.90;4.18;;;24.70;67.80;;;;;;5065674;28;20388;-80
2022/12/04 08:43:21;;;;;;;5.93;2.88;;;24.60;67.90;;;;;;5068883;28;20378;-79
2022/12/04 08:45:59;;;;;;;5.90;3.10;;;24.40;68.10;;;;;;5068727;28;20367;-86
2022/12/04 08:48:27;;;;;;;8.85;3.65;;;24.20;68.20;;;;;;5068311;28;20397;-78
2022/12/04 08:50:54;;;;;;;5.73;2.63;;;24.00;68.90;;;;;;5068843;28;20378;-82
2022/12/04 08:53:23;;;;;;;3.65;1.70;;;23.80;69.00;;;;;;5068648;28;20378;-83
2022/12/04 08:55:51;;;;;;;2.20;1.23;;;23.50;69.80;;;;;;5068368;28;20432;-83
2022/12/04 08:58:21;;;;;;;2.35;0.95;;;23.20;70.80;;;;;;5068025;28;20405;-85
2022/12/04 09:00:49;;;;;;;4.75;0.90;;;23.10;71.90;;;;;;5050533;28;20374;-84
2022/12/04 09:03:20;;;;;;;4.38;0.90;;;22.90;72.50;;;;;;5068720;28;20406;-81
2022/12/04 09:05:47;;;;;;;2.43;0.87;;;22.90;73.30;;;;;;5068970;28;20366;-78
2022/12/04 09:08:16;;;;;;;2.22;0.80;;;22.70;74.00;;;;;;5068447;28;20416;-84
2022/12/04 09:10:43;;;;;;;1.75;0.70;;;22.50;74.70;;;;;;5068255;28;20505;-82
2022/12/04 09:13:11;;;;;;;2.33;0.73;;;22.50;75.50;;;;;;5068215;28;20382;-82
2022/12/04 09:15:41;;;;;;;2.58;0.80;;;22.30;76.20;;;;;;5049781;28;20465;-84
2022/12/04 09:18:09;;;;;;;3.33;0.93;;;22.20;76.70;;;;;;5068138;28;20432;-81
2022/12/04 09:20:36;;;;;;;3.78;0.98;;;22.10;77.60;;;;;;5068426;28;20462;-86
2022/12/04 09:23:05;;;;;;;2.80;0.70;;;22.10;78.30;;;;;;5068257;28;20370;-78
2022/12/04 09:25:36;;;;;;;2.90;1.00;;;22.00;79.30;;;;;;5068370;28;20406;-85
2022/12/04 09:28:05;;;;;;;3.20;1.20;;;21.90;79.50;;;;;;5068008;28;20484;-79
2022/12/04 09:30:32;;;;;;;3.33;1.38;;;21.80;80.50;;;;;;5068070;28;20374;-78
2022/12/04 09:32:59;;;;;;;3.53;1.42;;;21.80;81.40;;;;;;5067567;28;20393;-84
2022/12/04 09:35:28;;;;;;;6.25;1.60;;;21.80;81.50;;;;;;5068228;28;20374;-77
2022/12/04 09:37:56;;;;;;;3.30;1.30;;;21.80;82.50;;;;;;5033948;28;20382;-82
2022/12/04 09:40:36;;;;;;;3.95;1.42;;;21.80;83.20;;;;;;5068090;28;20374;-76
2022/12/04 09:43:28;;;;;;;3.97;1.10;;;21.70;84.10;;;;;;5068019;28;20378;-79
2022/12/04 09:46:08;;;;;;;3.22;1.15;;;21.70;85.80;;;;;;5050065;28;20473;-82
2022/12/04 09:48:40;;;;;;;4.28;1.25;;;21.60;87.00;;;;;;5068131;28;20439;-79
2022/12/04 09:51:17;;;;;;;3.03;1.25;;;21.50;87.40;;;;;;5062999;28;20485;-84
2022/12/04 09:53:47;;;;;;;2.45;1.02;;;21.50;88.20;;;;;;5068387;28;20387;-77
2022/12/04 09:56:21;;;;;;;2.33;0.90;;;21.40;89.70;;;;;;5067824;28;20740;-77
2022/12/04 09:58:57;;;;;;;2.65;1.08;;;21.30;90.30;;;;;;5049519;28;20397;-84
2022/12/04 10:01:30;;;;;;;3.50;1.08;;;21.30;90.70;;;;;;5067672;28;20366;-79
2022/12/04 10:03:57;;;;;;;3.22;0.90;;;21.30;91.20;;;;;;5067995;28;20890;-83
2022/12/04 10:06:39;;;;;;;2.42;1.05;;;21.10;91.90;;;;;;5067523;28;20381;-81
2022/12/04 10:09:34;;;;;;;3.58;1.30;;;21.00;92.50;;;;;;5067656;28;20369;-81
2022/12/04 10:12:31;;;;;;;4.05;1.10;;;21.00;93.40;;;;;;5067603;28;20470;-78
2022/12/04 10:15:10;;;;;;;4.60;1.20;;;20.90;94.40;;;;;;4986593;28;20399;-81
2022/12/04 10:18:22;;;;;;;4.25;1.23;;;20.80;95.20;;;;;;4986569;28;20455;-82
2022/12/04 10:21:11;;;;;;;2.45;0.90;;;20.80;96.10;;;;;;4986338;28;20389;-83
2022/12/04 10:23:47;;;;;;;3.17;1.35;;;20.80;96.50;;;;;;4986910;28;20369;-77
2022/12/04 10:26:17;;;;;;;3.90;1.00;;;20.80;96.90;;;;;;4986690;28;20474;-77
2022/12/04 10:28:51;;;;;;;4.90;1.20;;;20.70;97.50;;;;;;4988985;28;20487;-78
2022/12/04 10:31:19;;;;;;;3.38;1.38;;;20.60;98.10;;;;;;5006055;28;20768;-76
2022/12/04 10:33:58;;;;;;;3.45;1.50;;;20.60;98.40;;;;;;4973361;28;20428;-78
2022/12/04 10:36:30;;;;;;;3.78;1.63;;;20.60;98.80;;;;;;4989625;28;20425;-78
2022/12/04 10:39:02;;;;;;;4.72;1.80;;;20.60;99.10;;;;;;4990350;28;20488;-81
2022/12/04 10:41:35;;;;;;;5.20;1.90;;;20.50;99.50;;;;;;4989345;28;20400;-83
2022/12/04 10:44:02;;;;;;;4.85;1.73;;;20.50;99.80;;;;;;4989984;28;20385;-76
2022/12/04 10:46:32;;;;;;;2.88;1.30;;;20.50;99.90;;;;;;5005599;28;20388;-77
2022/12/04 10:49:05;;;;;;;4.63;1.42;;;20.40;99.90;;;;;;4989309;28;20479;-77
2022/12/04 10:51:41;;;;;;;3.53;1.00;;;20.30;99.90;;;;;;5025690;28;20382;-75
2022/12/04 10:54:42;;;;;;;4.53;1.10;;;20.30;99.90;;;;;;5070526;28;20410;-75
2022/12/04 10:57:13;;;;;;;1.70;0.80;;;20.20;99.90;;;;;;5070268;28;20378;-77
2022/12/04 10:59:51;;;;;;;3.03;1.05;;;20.10;99.90;;;;;;5070466;28;20413;-78
2022/12/04 11:02:38;;;;;;;3.58;1.10;;;20.20;99.90;;;;;;5071038;28;20365;-76
2022/12/04 11:05:22;;;;;;;4.22;1.02;;;20.10;99.90;;;;;;5071185;28;20956;-77
2022/12/04 11:07:50;;;;;;;2.83;0.82;;;20.10;99.90;;;;;;5070946;28;20423;-80
2022/12/04 11:10:23;;;;;;;4.47;0.90;;;20.00;99.90;;;;;;5070376;28;20371;-77
2022/12/04 11:13:02;;;;;;;2.83;0.70;;;20.00;99.90;;;;;;5070854;28;20865;-77
2022/12/04 11:15:30;;;;;;;2.25;0.80;;;20.10;99.90;;;;;;5070425;28;20374;-77
2022/12/04 11:18:18;;;;;;;5.15;0.93;;;20.00;99.90;;;;;;5070470;28;20366;-77
2022/12/04 11:20:56;;;;;;;4.22;1.08;;;19.80;99.90;;;;;;5070137;28;20428;-77
2022/12/04 11:23:23;;;;;;;3.97;1.00;;;19.80;99.90;;;;;;5069993;28;20374;-78
2022/12/04 11:25:53;;;;;;;5.13;1.10;;;19.80;99.90;;;;;;5070544;28;20404;-77
2022/12/04 11:28:29;;;;;;;5.47;1.10;;;19.80;99.90;;;;;;5052079;28;20910;-80
2022/12/04 11:31:00;;;;;;;4.32;0.90;;;19.80;99.90;;;;;;5070073;28;20402;-78
2022/12/04 11:33:39;;;;;;;4.75;1.00;;;19.80;99.90;;;;;;5070008;28;20362;-78
2022/12/04 11:36:21;;;;;;;5.20;1.00;;;19.80;99.90;;;;;;5070016;28;20775;-78
2022/12/04 11:38:50;;;;;;;3.13;1.00;;;19.70;99.90;;;;;;5051051;28;20378;-77
2022/12/04 11:41:29;;;;;;;2.72;0.85;;;19.70;99.90;;;;;;5069676;28;20382;-78
2022/12/04 11:43:57;;;;;;;2.58;0.80;;;19.60;99.90;;;;;;5070011;28;20362;-77
2022/12/04 11:46:30;;;;;;;4.28;1.10;;;19.60;99.90;;;;;;5069471;28;20382;-77
2022/12/04 11:48:57;;;;;;;4.35;1.10;;;19.60;99.90;;;;;;5069931;28;20719;-76
2022/12/04 11:51:48;;;;;;;5.32;1.10;;;19.60;99.90;;;;;;5069848;28;20374;-77
2022/12/04 11:54:48;;;;;;;4.85;1.08;;;19.60;99.90;;;;;;5069549;28;20378;-74
2022/12/04 11:57:37;;;;;;;3.80;1.00;;;19.50;99.90;;;;;;5069254;28;20426;-75
2022/12/04 12:00:04;;;;;;;3.97;1.10;;;19.50;99.90;;;;;;5069400;28;20387;-74
2022/12/04 12:02:45;;;;;;;2.53;0.90;;;19.50;99.90;;;;;;5069725;28;20765;-75
2022/12/04 12:05:52;;;;;;;4.03;1.10;;;19.40;99.90;;;;;;5069912;28;20417;-76
2022/12/04 12:08:41;;;;;;;3.97;1.20;;;19.40;99.90;;;;;;4988086;28;20416;-77
2022/12/04 12:11:57;;;;;;;3.58;1.20;;;19.30;99.90;;;;;;4988044;28;20452;-79
2022/12/04 12:14:42;;;;;;;3.33;1.08;;;19.30;99.90;;;;;;4911236;29;20490;-81
2022/12/04 12:17:27;;;;;;;2.13;0.93;;;19.20;99.90;;;;;;4911250;29;20396;-77
2022/12/04 12:20:15;;;;;;;3.08;0.90;;;19.10;99.90;;;;;;4911180;29;20392;-78
2022/12/04 12:23:06;;;;;;;3.23;1.00;;;19.10;99.90;;;;;;4911085;29;20389;-77
2022/12/04 12:25:49;;;;;;;2.83;0.90;;;19.00;99.90;;;;;;4911634;29;20420;-82
2022/12/04 12:28:16;;;;;;;5.47;1.15;;;19.00;99.90;;;;;;4910752;29;20978;-76
2022/12/04 12:31:07;;;;;;;3.53;1.00;;;19.00;99.90;;;;;;4910907;29;20392;-77
2022/12/04 12:33:59;;;;;;;4.70;1.10;;;19.00;99.90;;;;;;4911126;29;20813;-76
2022/12/04 12:36:30;;;;;;;4.30;0.97;;;18.90;99.90;;;;;;4910858;29;20474;-79
2022/12/04 12:39:08;;;;;;;5.03;1.10;;;18.80;99.90;;;;;;4910899;29;20762;-79
2022/12/04 12:41:43;;;;;;;3.10;0.90;;;18.90;99.90;;;;;;4910751;29;20934;-77
2022/12/04 12:44:26;;;;;;;4.23;1.10;;;18.80;99.90;;;;;;4910916;29;20411;-78
2022/12/04 12:47:08;;;;;;;4.53;0.90;;;18.80;99.90;;;;;;4987396;28;20868;-82
2022/12/04 12:49:56;;;;;;;3.70;0.90;;;18.70;99.90;;;;;;4987357;28;20435;-77
2022/12/04 12:52:41;;;;;;;3.92;0.80;;;18.70;99.90;;;;;;5050478;28;20398;-76
2022/12/04 12:55:38;;;;;;;3.45;1.00;;;18.60;99.90;;;;;;5068728;28;20358;-76
2022/12/04 12:58:45;;;;;;;4.20;1.10;;;18.50;99.90;;;;;;5068999;28;20707;-76
2022/12/04 13:01:50;;;;;;;2.63;0.98;;;18.50;99.90;;;;;;4987256;28;20385;-81
2022/12/04 13:04:28;;;;;;;4.55;1.15;;;18.40;99.90;;;;;;4985281;28;20412;-78
2022/12/04 13:07:19;;;;;;;5.15;1.15;;;18.30;99.90;;;;;;4987590;28;20489;-83
2022/12/04 13:10:11;;;;;;;4.88;1.50;;;18.20;99.90;;;;;;4984639;28;20443;-76
2022/12/04 13:12:52;;;;;;;3.28;1.38;;;18.20;99.90;;;;;;4987447;28;20412;-81
2022/12/04 13:15:23;;;;;;;4.43;1.40;;;18.20;99.90;;;;;;4987596;28;20400;-76
2022/12/04 13:17:53;;;;;;;7.90;1.15;;;18.10;99.90;;;;;;4970713;28;20730;-77
2022/12/04 13:20:29;;;;;;;3.35;1.10;;;18.10;99.90;;;;;;4987091;28;20389;-76
2022/12/04 13:23:18;;;;;;;4.32;1.17;;;18.00;99.90;;;;;;4987048;28;20381;-77
2022/12/04 13:25:57;;;;;;;4.45;1.10;;;18.00;99.90;;;;;;4987024;28;20389;-77
2022/12/04 13:28:48;;;;;;;3.95;1.13;;;18.00;99.90;;;;;;4986796;28;20496;-79